Time;durP1;ratioP1;P1;durP2;ratioP2;P2;SDS_P1;SDS_P2;PMS_P1;PMS_P2;Temp;Humidity;BMP_temperature;BMP_pressure;BME280_temperature;BME280_humidity;BME280_pressure;Samples;Min_cycle;Max_cycle;Signal;HPM_P1;HPM_P2
2022/11/07 00:01:45;;;;;;;;;;;7.70;99.90;;;;;;5063675;28;19991;-67
2022/11/07 00:04:11;;;;;;;;;;;7.70;99.90;;;;;;5063857;28;20145;-67
2022/11/07 00:06:38;;;;;;;;;;;7.70;99.90;;;;;;5063224;28;20372;-68
2022/11/07 00:09:04;;;;;;;;;;;7.80;99.90;;;;;;5063401;28;19920;-68
2022/11/07 00:11:32;;;;;;;;;;;7.80;99.90;;;;;;5067242;28;20240;-67
2022/11/07 00:13:59;;;;;;;;;;;7.80;99.90;;;;;;5058791;28;19993;-67
2022/11/07 00:16:27;;;;;;;;;;;7.80;99.90;;;;;;5067433;28;19991;-68
2022/11/07 00:18:54;;;;;;;;;;;7.90;99.90;;;;;;5067561;28;19928;-68
2022/11/07 00:21:20;;;;;;;;;;;7.90;99.90;;;;;;5067407;28;19987;-68
2022/11/07 00:23:47;;;;;;;;;;;7.90;99.90;;;;;;5067708;28;19988;-67
2022/11/07 00:26:14;;;;;;;;;;;7.90;99.90;;;;;;5067073;28;20299;-68
2022/11/07 00:28:43;;;;;;;;;;;8.00;99.90;;;;;;5067223;28;20171;-68
2022/11/07 00:31:10;;;;;;;;;;;8.00;99.90;;;;;;5067407;28;19975;-67
2022/11/07 00:33:37;;;;;;;;;;;8.00;99.90;;;;;;5067530;28;19953;-68
2022/11/07 00:36:04;;;;;;;;;;;8.00;99.90;;;;;;5066867;28;19963;-68
2022/11/07 00:38:30;;;;;;;;;;;8.00;99.90;;;;;;5067191;28;19921;-68
2022/11/07 00:40:57;;;;;;;;;;;8.00;99.90;;;;;;5066953;28;20182;-68
2022/11/07 00:43:24;;;;;;;;;;;8.00;99.90;;;;;;5067318;28;19959;-67
2022/11/07 00:45:52;;;;;;;;;;;8.00;99.90;;;;;;5066947;28;19952;-68
2022/11/07 00:48:19;;;;;;;;;;;8.00;99.90;;;;;;5067063;28;19992;-68
2022/11/07 00:50:46;;;;;;;;;;;7.90;99.90;;;;;;5067147;28;20046;-67
2022/11/07 00:53:12;;;;;;;;;;;7.80;99.90;;;;;;5067144;28;19989;-68
2022/11/07 00:55:39;;;;;;;;;;;7.80;99.90;;;;;;5066714;28;20007;-68
2022/11/07 00:58:06;;;;;;;;;;;7.70;99.90;;;;;;5066718;28;19987;-69
2022/11/07 01:00:32;;;;;;;;;;;7.80;99.90;;;;;;5066759;28;19991;-68
2022/11/07 01:05:54;;;;;;;;;;;7.80;99.90;;;;;;5066396;28;20275;-68
2022/11/07 01:08:21;;;;;;;;;;;7.80;99.90;;;;;;5066593;28;20276;-67
2022/11/07 01:10:47;;;;;;;;;;;7.80;99.90;;;;;;5066601;28;19960;-69
2022/11/07 01:13:14;;;;;;;;;;;7.80;99.90;;;;;;5066633;28;19979;-67
2022/11/07 01:15:41;;;;;;;;;;;7.80;99.90;;;;;;5066129;28;19988;-67
2022/11/07 01:18:09;;;;;;;;;;;7.80;99.90;;;;;;5066466;28;20381;-67
2022/11/07 01:20:36;;;;;;;;;;;7.80;99.90;;;;;;5066286;28;19924;-67
2022/11/07 01:23:02;;;;;;;;;;;7.90;99.90;;;;;;5066543;28;19956;-67
2022/11/07 01:25:29;;;;;;;;;;;7.80;99.90;;;;;;5066076;28;19976;-67
2022/11/07 01:27:55;;;;;;;;;;;7.90;99.90;;;;;;5066462;28;19921;-68
2022/11/07 01:30:22;;;;;;;;;;;7.90;99.90;;;;;;5066260;28;19996;-68
2022/11/07 01:32:49;;;;;;;;;;;7.90;99.90;;;;;;5066309;28;20015;-68
2022/11/07 01:35:17;;;;;;;;;;;8.00;99.90;;;;;;5066104;28;19984;-68
2022/11/07 01:37:44;;;;;;;;;;;8.00;99.90;;;;;;5065979;28;20288;-69
2022/11/07 01:40:11;;;;;;;;;;;8.10;99.90;;;;;;5066167;28;19952;-67
2022/11/07 01:42:38;;;;;;;;;;;8.10;99.90;;;;;;5066319;28;20175;-68
2022/11/07 01:45:05;;;;;;;;;;;8.10;99.90;;;;;;5065696;28;19952;-69
2022/11/07 01:47:35;;;;;;;;;;;8.10;99.90;;;;;;5066242;28;19952;-68
2022/11/07 01:50:02;;;;;;;;;;;8.10;99.90;;;;;;5065905;28;19952;-68
2022/11/07 01:52:31;;;;;;;;;;;8.20;99.90;;;;;;5066110;28;19987;-68
2022/11/07 01:55:01;;;;;;;;;;;8.20;99.90;;;;;;5065729;28;19920;-67
2022/11/07 01:57:29;;;;;;;;;;;8.30;99.90;;;;;;5065736;28;20218;-68
2022/11/07 01:59:57;;;;;;;;;;;8.30;99.90;;;;;;5065513;28;20254;-68
2022/11/07 02:02:25;;;;;;;;;;;8.30;99.90;;;;;;5065984;28;19988;-68
2022/11/07 02:04:52;;;;;;;;;;;8.30;99.90;;;;;;5065455;28;20263;-68
2022/11/07 02:07:20;;;;;;;;;;;8.30;99.90;;;;;;5065845;28;19983;-68
2022/11/07 02:09:48;;;;;;;;;;;8.30;99.90;;;;;;5065327;28;19984;-68
2022/11/07 02:12:16;;;;;;;;;;;8.30;99.90;;;;;;5065721;28;19921;-68
2022/11/07 02:14:42;;;;;;;;;;;8.40;99.90;;;;;;5065237;28;19987;-68
2022/11/07 02:17:10;;;;;;;;;;;8.40;99.90;;;;;;5065423;28;19991;-68
2022/11/07 02:19:37;;;;;;;;;;;8.50;99.90;;;;;;5065367;28;20014;-68
2022/11/07 02:22:09;;;;;;;;;;;8.50;99.90;;;;;;5065375;28;19988;-68
2022/11/07 02:24:37;;;;;;;;;;;8.40;99.90;;;;;;5065162;28;19987;-71
2022/11/07 02:27:07;;;;;;;;;;;8.50;99.90;;;;;;5065282;28;19927;-68
2022/11/07 02:29:34;;;;;;;;;;;8.50;99.90;;;;;;5064867;28;19987;-69
2022/11/07 02:32:02;;;;;;;;;;;8.50;99.90;;;;;;5064610;28;20275;-68
2022/11/07 02:34:28;;;;;;;;;;;8.60;99.90;;;;;;5065173;28;19943;-68
2022/11/07 02:36:55;;;;;;;;;;;8.60;99.90;;;;;;5065170;28;19960;-68
2022/11/07 02:39:22;;;;;;;;;;;8.60;99.90;;;;;;5044883;28;19957;-68
2022/11/07 02:41:51;;;;;;;;;;;8.60;99.90;;;;;;5045200;28;19980;-68
2022/11/07 02:44:18;;;;;;;;;;;8.60;99.90;;;;;;5045106;28;19984;-68
2022/11/07 02:46:45;;;;;;;;;;;8.70;99.90;;;;;;5044770;28;19997;-68
2022/11/07 02:49:12;;;;;;;;;;;8.70;99.90;;;;;;5045025;28;19976;-68
2022/11/07 02:51:39;;;;;;;;;;;8.70;99.90;;;;;;5057237;28;19980;-68
2022/11/07 02:54:05;;;;;;;;;;;8.70;99.90;;;;;;5064807;28;19984;-68
2022/11/07 02:56:32;;;;;;;;;;;8.70;99.90;;;;;;5064280;28;19984;-70
2022/11/07 02:59:00;;;;;;;;;;;8.70;99.90;;;;;;5064693;28;19963;-68
2022/11/07 03:01:27;;;;;;;;;;;8.70;99.90;;;;;;5064596;28;19984;-68
2022/11/07 03:03:53;;;;;;;;;;;8.80;99.90;;;;;;5064713;28;19921;-68
2022/11/07 03:06:21;;;;;;;;;;;8.80;99.90;;;;;;5064376;28;20156;-68
2022/11/07 03:08:48;;;;;;;;;;;8.80;99.90;;;;;;5064269;28;20279;-68
2022/11/07 03:11:18;;;;;;;;;;;8.80;99.90;;;;;;5064440;28;19960;-68
2022/11/07 03:13:46;;;;;;;;;;;8.80;99.90;;;;;;5064156;28;19963;-69
2022/11/07 03:16:14;;;;;;;;;;;8.90;99.90;;;;;;5064172;28;19959;-68
2022/11/07 03:18:41;;;;;;;;;;;8.80;99.90;;;;;;5064382;28;19959;-68
2022/11/07 03:21:07;;;;;;;;;;;8.90;99.90;;;;;;5064282;28;20173;-68
2022/11/07 03:23:35;;;;;;;;;;;8.80;99.90;;;;;;5063942;28;20260;-68
2022/11/07 03:26:01;;;;;;;;;;;8.80;99.90;;;;;;5063882;28;19988;-69
2022/11/07 03:28:28;;;;;;;;;;;8.80;99.90;;;;;;5064212;28;19988;-68
2022/11/07 03:30:55;;;;;;;;;;;8.80;99.90;;;;;;5064088;28;19956;-68
2022/11/07 03:33:22;;;;;;;;;;;8.80;99.90;;;;;;5064261;28;19921;-69
2022/11/07 03:35:49;;;;;;;;;;;8.90;99.90;;;;;;5063910;28;19992;-68
2022/11/07 03:38:16;;;;;;;;;;;8.90;99.90;;;;;;5064099;28;20004;-69
2022/11/07 03:40:45;;;;;;;;;;;8.90;99.90;;;;;;5063507;28;19995;-68
2022/11/07 03:43:11;;;;;;;;;;;8.90;99.90;;;;;;5064935;28;20316;-68
2022/11/07 03:45:38;;;;;;;;;;;8.80;99.90;;;;;;5063353;28;19967;-68
2022/11/07 03:48:05;;;;;;;;;;;8.80;99.90;;;;;;5063888;28;19987;-68
2022/11/07 03:50:33;;;;;;;;;;;8.70;99.90;;;;;;5063855;28;19987;-67
2022/11/07 03:52:59;;;;;;;;;;;8.70;99.90;;;;;;5063785;28;19956;-67
2022/11/07 03:55:26;;;;;;;;;;;8.70;99.90;;;;;;5063286;28;19952;-68
2022/11/07 03:57:53;;;;;;;;;;;8.60;99.90;;;;;;5063758;28;19988;-68
2022/11/07 04:00:19;;;;;;;;;;;8.60;99.90;;;;;;5063763;28;20158;-68
2022/11/07 04:02:46;;;;;;;;;;;8.60;99.90;;;;;;5063776;28;19996;-67
2022/11/07 04:05:13;;;;;;;;;;;8.60;99.90;;;;;;5063518;28;20153;-68
2022/11/07 04:07:41;;;;;;;;;;;8.50;99.90;;;;;;5063641;28;19984;-68
2022/11/07 04:10:08;;;;;;;;;;;8.50;99.90;;;;;;5063700;28;19979;-67
2022/11/07 04:18:05;;;;;;;;;;;8.40;99.90;;;;;;5058143;28;19924;-68
2022/11/07 04:20:31;;;;;;;;;;;8.40;99.90;;;;;;5063626;28;19952;-68
2022/11/07 04:22:59;;;;;;;;;;;8.30;99.90;;;;;;5063413;28;20291;-67
2022/11/07 04:28:06;;;;;;;;;;;8.30;99.90;;;;;;5063220;28;19927;-67
2022/11/07 04:30:33;;;;;;;;;;;8.30;99.90;;;;;;5063279;28;19987;-69
2022/11/07 04:33:01;;;;;;;;;;;8.30;99.90;;;;;;5063460;28;19983;-68
2022/11/07 04:35:28;;;;;;;;;;;8.20;99.90;;;;;;5063250;28;19956;-68
2022/11/07 04:37:55;;;;;;;;;;;8.20;99.90;;;;;;5063466;28;19952;-68
2022/11/07 04:40:23;;;;;;;;;;;8.10;99.90;;;;;;5063028;28;19921;-68
2022/11/07 04:42:49;;;;;;;;;;;8.10;99.90;;;;;;5043441;28;19988;-68
2022/11/07 04:45:16;;;;;;;;;;;8.00;99.90;;;;;;5043162;28;19952;-68
2022/11/07 04:47:43;;;;;;;;;;;8.00;99.90;;;;;;5043203;28;19952;-67
2022/11/07 04:50:11;;;;;;;;;;;8.00;99.90;;;;;;5047969;28;20195;-68
2022/11/07 04:52:38;;;;;;;;;;;8.00;99.90;;;;;;5063216;28;19996;-68
2022/11/07 04:55:04;;;;;;;;;;;8.00;99.90;;;;;;5062995;28;19987;-67
2022/11/07 04:57:32;;;;;;;;;;;7.90;99.90;;;;;;5046543;28;20288;-68
2022/11/07 04:59:59;;;;;;;;;;;7.90;99.90;;;;;;5046947;28;19987;-68
2022/11/07 05:02:26;;;;;;;;;;;7.90;99.90;;;;;;5066244;28;19980;-69
2022/11/07 05:04:53;;;;;;;;;;;7.90;99.90;;;;;;5066652;28;20181;-67
2022/11/07 05:07:20;;;;;;;;;;;7.90;99.90;;;;;;5066978;28;19948;-67
2022/11/07 05:09:46;;;;;;;;;;;7.90;99.90;;;;;;5066495;28;19987;-68
2022/11/07 05:12:13;;;;;;;;;;;7.90;99.90;;;;;;5066186;28;20003;-67
2022/11/07 05:14:41;;;;;;;;;;;7.90;99.90;;;;;;5066118;28;20285;-69
2022/11/07 05:17:13;;;;;;;;;;;8.00;99.90;;;;;;5066163;28;19985;-68
2022/11/07 05:19:41;;;;;;;;;;;8.00;99.90;;;;;;5057819;28;19992;-67
2022/11/07 05:24:52;;;;;;;;;;;8.10;99.90;;;;;;5056252;28;19924;-68
2022/11/07 05:27:20;;;;;;;;;;;8.00;99.90;;;;;;5066369;28;19948;-68
2022/11/07 05:29:48;;;;;;;;;;;8.00;99.90;;;;;;5065459;28;19959;-67
2022/11/07 05:32:14;;;;;;;;;;;8.00;99.90;;;;;;5065886;28;20116;-67
2022/11/07 05:34:41;;;;;;;;;;;8.00;99.90;;;;;;5065632;28;19956;-68
2022/11/07 05:37:08;;;;;;;;;;;8.00;99.90;;;;;;5051738;28;19921;-68
2022/11/07 05:39:35;;;;;;;;;;;8.00;99.90;;;;;;5062967;28;20097;-69
2022/11/07 05:42:02;;;;;;;;;;;8.00;99.90;;;;;;5065958;28;19974;-69
2022/11/07 05:44:28;;;;;;;;;;;8.00;99.90;;;;;;5065562;28;20236;-69
2022/11/07 05:46:57;;;;;;;;;;;8.00;99.90;;;;;;5065689;28;20189;-70
2022/11/07 05:49:24;;;;;;;;;;;8.00;99.90;;;;;;5065508;28;19921;-69
2022/11/07 05:51:51;;;;;;;;;;;7.90;99.90;;;;;;5065601;28;20107;-69
2022/11/07 05:54:17;;;;;;;;;;;7.90;99.90;;;;;;5065385;28;19988;-68
2022/11/07 05:56:44;;;;;;;;;;;7.90;99.90;;;;;;5065593;28;20064;-70
2022/11/07 05:59:11;;;;;;;;;;;7.90;99.90;;;;;;5065775;28;19952;-70
2022/11/07 06:01:37;;;;;;;;;;;7.90;99.90;;;;;;5065583;28;19952;-69
2022/11/07 06:04:06;;;;;;;;;;;7.90;99.90;;;;;;5065650;28;19927;-69
2022/11/07 06:06:33;;;;;;;;;;;7.90;99.90;;;;;;5065194;28;19921;-69
2022/11/07 06:08:59;;;;;;;;;;;7.90;99.90;;;;;;5064653;28;19921;-69
2022/11/07 06:11:26;;;;;;;;;;;8.00;99.90;;;;;;5065257;28;19975;-69
2022/11/07 06:13:53;;;;;;;;;;;7.90;99.90;;;;;;5065587;28;20168;-69
2022/11/07 06:16:19;;;;;;;;;;;8.00;99.90;;;;;;5065110;28;19987;-69
2022/11/07 06:18:46;;;;;;;;;;;7.90;99.90;;;;;;5065191;28;19987;-68
2022/11/07 06:21:15;;;;;;;;;;;8.00;99.90;;;;;;5065248;28;19952;-73
2022/11/07 06:23:42;;;;;;;;;;;8.00;99.90;;;;;;5065306;28;19963;-75
2022/11/07 06:26:09;;;;;;;;;;;8.00;99.90;;;;;;5064783;28;20120;-70
2022/11/07 06:28:36;;;;;;;;;;;8.00;99.90;;;;;;5064671;28;19988;-72
2022/11/07 06:31:03;;;;;;;;;;;8.10;99.90;;;;;;5065036;28;20004;-70
2022/11/07 06:33:30;;;;;;;;;;;8.00;99.90;;;;;;5064666;28;19987;-69
2022/11/07 06:36:04;;;;;;;;;;;8.00;99.90;;;;;;5063996;28;19949;-71
2022/11/07 06:38:32;;;;;;;;;;;8.00;99.90;;;;;;5064678;28;19959;-70
2022/11/07 06:41:03;;;;;;;;;;;8.00;99.90;;;;;;5064486;28;19988;-71
2022/11/07 06:43:30;;;;;;;;;;;8.00;99.90;;;;;;5064944;28;20040;-71
2022/11/07 06:45:56;;;;;;;;;;;8.00;99.90;;;;;;5064358;28;20268;-69
2022/11/07 06:48:23;;;;;;;;;;;8.00;99.90;;;;;;5064453;28;19951;-71
2022/11/07 06:50:55;;;;;;;;;;;8.00;99.90;;;;;;5064830;28;19956;-70
2022/11/07 06:53:22;;;;;;;;;;;8.00;99.90;;;;;;5064833;28;20000;-70
2022/11/07 06:55:50;;;;;;;;;;;8.00;99.90;;;;;;5064175;28;19947;-70
2022/11/07 06:58:16;;;;;;;;;;;8.00;99.90;;;;;;5064563;28;20144;-70
2022/11/07 07:00:43;;;;;;;;;;;7.90;99.90;;;;;;5064562;28;19991;-68
2022/11/07 07:03:10;;;;;;;;;;;7.90;99.90;;;;;;5064550;28;19952;-70
2022/11/07 07:05:37;;;;;;;;;;;7.90;99.90;;;;;;5064114;28;19956;-71
2022/11/07 07:08:04;;;;;;;;;;;7.90;99.90;;;;;;5064482;28;19987;-70
2022/11/07 07:10:31;;;;;;;;;;;7.90;99.90;;;;;;5064453;28;19921;-70
2022/11/07 07:12:59;;;;;;;;;;;7.90;99.90;;;;;;5064245;28;20152;-69
2022/11/07 07:15:26;;;;;;;;;;;8.00;99.90;;;;;;5063885;28;19952;-70
2022/11/07 07:17:53;;;;;;;;;;;8.00;99.90;;;;;;5064227;28;19928;-70
2022/11/07 07:20:19;;;;;;;;;;;8.00;99.90;;;;;;5063865;28;19987;-70
2022/11/07 07:22:46;;;;;;;;;;;8.00;99.90;;;;;;5064197;28;20003;-70
2022/11/07 07:25:13;;;;;;;;;;;8.00;99.90;;;;;;5063542;28;19920;-70
2022/11/07 07:27:40;;;;;;;;;;;8.10;99.90;;;;;;5064177;28;19987;-68
2022/11/07 07:30:09;;;;;;;;;;;8.10;99.90;;;;;;5064221;28;20115;-71
2022/11/07 07:32:36;;;;;;;;;;;8.20;99.90;;;;;;5064010;28;19974;-70
2022/11/07 07:35:03;;;;;;;;;;;8.20;99.90;;;;;;5063655;28;19921;-69
2022/11/07 07:37:31;;;;;;;;;;;8.30;99.90;;;;;;5063269;28;19972;-70
2022/11/07 07:39:58;;;;;;;;;;;8.30;99.90;;;;;;5063858;28;19956;-70
2022/11/07 07:42:25;;;;;;;;;;;8.40;99.90;;;;;;5063847;28;19989;-72
2022/11/07 07:44:51;;;;;;;;;;;8.40;99.90;;;;;;5063548;28;19983;-70
2022/11/07 07:47:19;;;;;;;;;;;8.50;99.90;;;;;;5062707;28;19996;-70
2022/11/07 07:49:46;;;;;;;;;;;8.50;99.90;;;;;;5063518;28;19988;-70
2022/11/07 07:52:13;;;;;;;;;;;8.50;99.90;;;;;;5063582;28;19996;-69
2022/11/07 07:54:39;;;;;;;;;;;8.60;99.90;;;;;;5063552;28;20176;-70
2022/11/07 07:57:06;;;;;;;;;;;8.60;99.90;;;;;;5052823;28;19984;-70
2022/11/07 07:59:32;;;;;;;;;;;8.60;99.90;;;;;;5053837;28;20077;-70
2022/11/07 08:01:59;;;;;;;;;;;8.60;99.90;;;;;;5061973;28;19991;-70
2022/11/07 08:04:27;;;;;;;;;;;8.70;99.90;;;;;;5063487;28;19955;-70
2022/11/07 08:06:54;;;;;;;;;;;8.70;99.90;;;;;;5063207;28;19988;-69
2022/11/07 08:09:20;;;;;;;;;;;8.70;99.90;;;;;;5063319;28;19999;-70
2022/11/07 08:11:47;;;;;;;;;;;8.80;99.90;;;;;;5063208;28;19921;-70
2022/11/07 08:14:13;;;;;;;;;;;8.80;99.90;;;;;;5048984;28;19988;-70
2022/11/07 08:16:40;;;;;;;;;;;8.80;99.90;;;;;;5043227;28;19999;-70
2022/11/07 08:19:07;;;;;;;;;;;8.80;99.90;;;;;;5043386;28;20177;-70
2022/11/07 08:21:35;;;;;;;;;;;8.90;99.90;;;;;;5043397;28;19963;-69
2022/11/07 08:24:02;;;;;;;;;;;9.00;99.90;;;;;;5043316;28;19989;-68
2022/11/07 08:26:29;;;;;;;;;;;9.10;99.90;;;;;;5046901;28;19921;-70
2022/11/07 08:28:55;;;;;;;;;;;9.10;99.90;;;;;;5062925;28;19921;-69
2022/11/07 08:31:22;;;;;;;;;;;9.10;99.90;;;;;;5064675;28;19996;-69
2022/11/07 08:33:49;;;;;;;;;;;9.20;99.90;;;;;;5067133;28;20112;-70
2022/11/07 08:36:15;;;;;;;;;;;9.20;99.90;;;;;;5066972;28;19956;-70
2022/11/07 08:38:43;;;;;;;;;;;9.30;99.90;;;;;;5067204;28;19964;-69
2022/11/07 08:41:10;;;;;;;;;;;9.30;99.90;;;;;;5067139;28;19956;-69
2022/11/07 08:43:36;;;;;;;;;;;9.40;99.90;;;;;;5066806;28;20271;-69
2022/11/07 08:46:03;;;;;;;;;;;9.50;99.90;;;;;;5066457;28;19988;-70
2022/11/07 08:48:30;;;;;;;;;;;9.50;99.90;;;;;;5066876;28;19952;-69
2022/11/07 08:50:57;;;;;;;;;;;9.60;99.90;;;;;;5066470;28;20269;-70
2022/11/07 08:53:25;;;;;;;;;;;9.70;99.90;;;;;;5066617;28;20499;-70
2022/11/07 08:55:59;;;;;;;;;;;9.70;99.90;;;;;;5065819;28;19983;-70
2022/11/07 08:58:26;;;;;;;;;;;9.70;99.90;;;;;;5046539;28;19997;-70
2022/11/07 09:00:53;;;;;;;;;;;9.80;99.90;;;;;;5046431;28;19984;-70
2022/11/07 09:03:19;;;;;;;;;;;9.90;99.90;;;;;;5046863;28;19984;-70
2022/11/07 09:05:46;;;;;;;;;;;10.00;99.90;;;;;;5063266;28;19978;-70
2022/11/07 09:08:12;;;;;;;;;;;10.00;99.90;;;;;;5066436;28;19984;-70
2022/11/07 09:10:39;;;;;;;;;;;10.10;99.90;;;;;;5066264;28;19992;-70
2022/11/07 09:13:07;;;;;;;;;;;10.20;99.90;;;;;;5066381;28;19960;-69
2022/11/07 09:15:36;;;;;;;;;;;10.20;99.90;;;;;;5065480;28;19991;-70
2022/11/07 09:18:03;;;;;;;;;;;10.20;99.90;;;;;;5066042;28;19996;-70
2022/11/07 09:20:29;;;;;;;;;;;10.30;99.90;;;;;;5065980;28;19921;-70
2022/11/07 09:22:56;;;;;;;;;;;10.40;99.90;;;;;;5065916;28;20120;-69
2022/11/07 09:25:23;;;;;;;;;;;10.50;99.90;;;;;;5065769;28;19988;-70
2022/11/07 09:27:50;;;;;;;;;;;10.60;99.90;;;;;;5066170;28;19924;-69
2022/11/07 09:30:19;;;;;;;;;;;10.60;99.90;;;;;;5066203;28;19933;-70
2022/11/07 09:32:45;;;;;;;;;;;10.70;99.90;;;;;;5066025;28;19996;-69
2022/11/07 09:35:12;;;;;;;;;;;10.70;99.90;;;;;;5065472;28;19955;-70
2022/11/07 09:37:39;;;;;;;;;;;10.80;99.90;;;;;;5065859;28;20224;-70
2022/11/07 09:40:06;;;;;;;;;;;10.90;99.90;;;;;;5065980;28;19948;-70
2022/11/07 09:42:37;;;;;;;;;;;11.10;99.90;;;;;;5064236;28;19988;-70
2022/11/07 09:45:04;;;;;;;;;;;11.20;99.90;;;;;;5065248;28;19983;-69
2022/11/07 09:47:35;;;;;;;;;;;11.30;99.90;;;;;;5065624;28;19956;-70
2022/11/07 09:50:05;;;;;;;;;;;11.40;99.90;;;;;;5065296;28;19984;-70
2022/11/07 09:52:37;;;;;;;;;;;11.50;99.90;;;;;;5065505;28;19963;-70
2022/11/07 09:55:07;;;;;;;;;;;11.60;99.90;;;;;;5065262;28;19921;-70
2022/11/07 09:57:35;;;;;;;;;;;11.70;99.90;;;;;;5065428;28;19921;-70
2022/11/07 10:00:04;;;;;;;;;;;11.70;99.90;;;;;;5065677;28;19992;-69
2022/11/07 10:02:32;;;;;;;;;;;11.80;99.90;;;;;;5065601;28;19983;-69
2022/11/07 10:05:01;;;;;;;;;;;11.80;99.90;;;;;;5065251;28;20144;-69
2022/11/07 10:07:36;;;;;;;;;;;11.90;99.90;;;;;;5065377;28;19952;-70
2022/11/07 10:10:06;;;;;;;;;;;11.90;99.90;;;;;;5065416;28;19920;-69
2022/11/07 10:12:41;;;;;;;;;;;12.00;99.90;;;;;;5065360;28;19971;-69
2022/11/07 10:15:12;;;;;;;;;;;12.20;99.90;;;;;;5065105;28;19988;-69
2022/11/07 10:17:44;;;;;;;;;;;12.30;99.90;;;;;;5065318;28;20063;-70
2022/11/07 10:20:18;;;;;;;;;;;12.50;99.90;;;;;;5065286;28;20144;-69
2022/11/07 10:22:53;;;;;;;;;;;12.60;99.90;;;;;;5064965;28;19929;-70
2022/11/07 10:25:24;;;;;;;;;;;12.70;99.90;;;;;;5064766;28;19956;-70
2022/11/07 10:27:53;;;;;;;;;;;12.80;99.90;;;;;;5064924;28;20007;-68
2022/11/07 10:30:21;;;;;;;;;;;13.00;99.90;;;;;;5065197;28;19992;-70
2022/11/07 10:32:52;;;;;;;;;;;13.20;99.90;;;;;;5064974;28;19944;-69
2022/11/07 10:35:23;;;;;;;;;;;13.30;99.90;;;;;;5064800;28;19924;-70
2022/11/07 10:37:53;;;;;;;;;;;13.30;99.90;;;;;;5061514;28;19955;-70
2022/11/07 10:40:20;;;;;;;;;;;13.40;99.90;;;;;;5063997;28;19921;-69
2022/11/07 10:42:48;;;;;;;;;;;13.50;99.90;;;;;;5051639;28;19921;-70
2022/11/07 10:45:16;;;;;;;;;;;13.60;99.90;;;;;;5044665;28;19952;-70
2022/11/07 10:47:43;;;;;;;;;;;13.70;99.90;;;;;;5044620;28;19984;-70
2022/11/07 10:50:22;;;;;;;;;;;13.80;99.90;;;;;;5044205;28;19952;-69
2022/11/07 10:52:52;;;;;;;;;;;13.80;99.90;;;;;;5044185;28;19921;-69
2022/11/07 10:55:19;;;;;;;;;;;13.90;99.90;;;;;;5054511;28;19948;-69
2022/11/07 10:57:47;;;;;;;;;;;14.00;99.90;;;;;;5065793;28;19988;-70
2022/11/07 11:00:21;;;;;;;;;;;14.10;99.90;;;;;;5064314;28;19984;-70
2022/11/07 11:02:48;;;;;;;;;;;14.10;99.90;;;;;;5064512;28;19936;-70
2022/11/07 11:05:28;;;;;;;;;;;14.00;99.90;;;;;;5058061;28;20000;-70
2022/11/07 11:07:56;;;;;;;;;;;13.90;99.90;;;;;;5045301;28;19921;-70
2022/11/07 11:10:27;;;;;;;;;;;13.70;99.90;;;;;;5044319;28;19921;-69
2022/11/07 11:12:54;;;;;;;;;;;13.60;99.90;;;;;;5044136;28;19929;-70
2022/11/07 11:15:22;;;;;;;;;;;13.50;99.90;;;;;;5043935;28;19928;-69
2022/11/07 11:17:57;;;;;;;;;;;13.50;99.90;;;;;;5044004;28;19956;-70
2022/11/07 11:20:29;;;;;;;;;;;13.50;99.90;;;;;;5044193;28;20005;-70
2022/11/07 11:22:56;;;;;;;;;;;13.40;99.90;;;;;;5044161;28;19921;-70
2022/11/07 11:25:23;;;;;;;;;;;13.50;99.90;;;;;;5043640;28;19988;-69
2022/11/07 11:27:53;;;;;;;;;;;13.50;99.90;;;;;;5044100;28;19921;-70
2022/11/07 11:30:20;;;;;;;;;;;13.60;99.90;;;;;;5043939;28;19953;-69
2022/11/07 11:32:50;;;;;;;;;;;13.60;99.90;;;;;;5044030;28;19956;-69
2022/11/07 11:35:24;;;;;;;;;;;13.70;99.90;;;;;;5042784;28;20890;-70
2022/11/07 11:37:56;;;;;;;;;;;13.80;99.90;;;;;;5043902;28;19989;-70
2022/11/07 11:40:23;;;;;;;;;;;13.90;99.90;;;;;;5062118;28;19921;-69
2022/11/07 11:42:53;;;;;;;;;;;13.90;99.90;;;;;;5063902;28;19921;-70
2022/11/07 11:45:25;;;;;;;;;;;14.00;99.90;;;;;;5063150;28;20224;-70
2022/11/07 11:47:59;;;;;;;;;;;14.20;99.90;;;;;;5063422;28;19921;-69
2022/11/07 11:50:29;;;;;;;;;;;14.20;99.90;;;;;;5062938;28;19987;-70
2022/11/07 11:52:58;;;;;;;;;;;14.20;99.90;;;;;;5063208;28;19925;-70
2022/11/07 11:55:26;;;;;;;;;;;14.30;99.90;;;;;;5063417;28;20167;-70
2022/11/07 11:57:58;;;;;;;;;;;14.20;99.90;;;;;;5063366;28;19988;-70
2022/11/07 12:00:25;;;;;;;;;;;14.20;99.90;;;;;;5063266;28;19980;-70
2022/11/07 12:03:01;;;;;;;;;;;14.10;99.90;;;;;;5065822;23;19996;-69
2022/11/07 12:05:43;;;;;;;;;;;14.00;99.90;;;;;;5042516;28;20000;-69
2022/11/07 12:08:19;;;;;;;;;;;13.90;99.90;;;;;;5042119;28;19988;-69
2022/11/07 12:10:50;;;;;;;;;;;13.90;99.90;;;;;;5043504;28;19921;-69
2022/11/07 12:13:22;;;;;;;;;;;13.90;99.90;;;;;;5022659;28;19953;-69
2022/11/07 12:15:55;;;;;;;;;;;13.80;99.90;;;;;;5022517;28;19959;-69
2022/11/07 12:18:24;;;;;;;;;;;13.70;99.90;;;;;;5023350;28;20165;-69
2022/11/07 12:20:58;;;;;;;;;;;13.70;99.90;;;;;;5023280;28;20204;-69
2022/11/07 12:23:28;;;;;;;;;;;13.70;99.90;;;;;;5023612;28;19988;-68
2022/11/07 12:25:57;;;;;;;;;;;13.70;99.90;;;;;;5023270;28;20171;-68
2022/11/07 12:28:37;;;;;;;;;;;13.70;99.90;;;;;;5022380;28;19984;-69
2022/11/07 12:31:10;;;;;;;;;;;13.70;99.90;;;;;;5020902;28;19957;-69
2022/11/07 12:33:41;;;;;;;;;;;13.70;99.90;;;;;;5022585;28;19964;-68
2022/11/07 12:36:11;;;;;;;;;;;13.70;99.90;;;;;;5022154;28;20009;-69
2022/11/07 12:38:54;;;;;;;;;;;13.60;99.90;;;;;;5023258;28;20236;-69
2022/11/07 12:41:26;;;;;;;;;;;13.60;99.90;;;;;;5022563;28;19984;-69
2022/11/07 12:43:59;;;;;;;;;;;13.60;99.90;;;;;;5023552;28;19989;-69
2022/11/07 12:46:28;;;;;;;;;;;13.60;99.90;;;;;;5023280;28;19975;-69
2022/11/07 12:49:18;;;;;;;;;;;13.50;99.90;;;;;;5023380;28;19989;-69
2022/11/07 12:51:49;;;;;;;;;;;13.50;99.90;;;;;;4968047;28;19923;-68
2022/11/07 12:54:35;;;;;;;;;;;13.50;99.90;;;;;;5023056;28;19949;-69
2022/11/07 12:57:04;;;;;;;;;;;13.50;99.90;;;;;;5023517;28;19988;-69
2022/11/07 12:59:32;;;;;;;;;;;13.50;99.90;;;;;;5023376;28;19936;-68
2022/11/07 13:02:01;;;;;;;;;;;13.40;99.90;;;;;;5019663;28;19922;-69
2022/11/07 13:04:34;;;;;;;;;;;13.50;99.90;;;;;;5003386;28;19953;-69
2022/11/07 13:07:04;;;;;;;;;;;13.50;99.90;;;;;;5003733;28;19993;-69
2022/11/07 13:09:36;;;;;;;;;;;13.50;99.90;;;;;;5003702;28;20163;-69
2022/11/07 13:12:06;;;;;;;;;;;13.50;99.90;;;;;;5003260;28;19945;-69
2022/11/07 13:14:33;;;;;;;;;;;13.50;99.90;;;;;;5003426;28;20200;-69
2022/11/07 13:17:22;;;;;;;;;;;13.50;99.90;;;;;;5014155;28;19984;-69
2022/11/07 13:19:59;;;;;;;;;;;13.60;99.90;;;;;;5022625;28;19984;-69
2022/11/07 13:22:31;;;;;;;;;;;13.60;99.90;;;;;;5014978;28;19990;-68
2022/11/07 13:25:07;;;;;;;;;;;13.70;99.90;;;;;;5026059;28;20228;-69
2022/11/07 13:27:35;;;;;;;;;;;13.80;99.90;;;;;;5041909;28;20251;-69
2022/11/07 13:30:14;;;;;;;;;;;13.70;99.90;;;;;;5037830;28;20379;-69
2022/11/07 13:32:42;;;;;;;;;;;13.70;99.90;;;;;;5026355;28;19953;-69
2022/11/07 13:35:09;;;;;;;;;;;13.70;99.90;;;;;;5006520;28;19996;-68
2022/11/07 13:37:42;;;;;;;;;;;13.70;99.90;;;;;;5006554;28;19960;-69
2022/11/07 13:40:20;;;;;;;;;;;13.70;99.90;;;;;;5006688;28;19922;-69
2022/11/07 13:42:48;;;;;;;;;;;13.60;99.90;;;;;;5006380;28;19990;-69
2022/11/07 13:45:21;;;;;;;;;;;13.60;99.90;;;;;;5006117;28;19921;-69
2022/11/07 13:47:48;;;;;;;;;;;13.60;99.90;;;;;;5006178;28;19953;-69
2022/11/07 13:50:18;;;;;;;;;;;13.60;99.90;;;;;;5010313;28;19949;-69
2022/11/07 13:52:48;;;;;;;;;;;13.60;99.90;;;;;;5026007;28;19988;-69
2022/11/07 13:55:19;;;;;;;;;;;13.60;99.90;;;;;;5020657;28;19957;-69
2022/11/07 13:57:49;;;;;;;;;;;13.60;99.90;;;;;;5006529;28;19956;-69
2022/11/07 14:00:18;;;;;;;;;;;13.60;99.90;;;;;;5006299;28;19953;-69
2022/11/07 14:02:50;;;;;;;;;;;13.50;99.90;;;;;;5005948;28;19929;-69
2022/11/07 14:05:16;;;;;;;;;;;13.50;99.90;;;;;;5006275;28;19926;-69
2022/11/07 14:07:46;;;;;;;;;;;13.50;99.90;;;;;;5009226;28;20259;-70
2022/11/07 14:10:17;;;;;;;;;;;13.60;99.90;;;;;;5012004;28;19984;-68
2022/11/07 14:12:45;;;;;;;;;;;13.60;99.90;;;;;;5021847;28;19961;-68
2022/11/07 14:15:14;;;;;;;;;;;13.50;99.90;;;;;;5024463;28;20169;-68
2022/11/07 14:17:40;;;;;;;;;;;13.50;99.90;;;;;;5024744;28;19957;-68
2022/11/07 14:20:14;;;;;;;;;;;13.50;99.90;;;;;;5025159;28;19992;-69
2022/11/07 14:22:47;;;;;;;;;;;13.50;99.90;;;;;;5025301;28;19925;-68
2022/11/07 14:25:18;;;;;;;;;;;13.50;99.90;;;;;;5023250;28;19980;-69
2022/11/07 14:27:46;;;;;;;;;;;13.60;99.90;;;;;;5022134;28;20257;-68
2022/11/07 14:30:15;;;;;;;;;;;13.60;99.90;;;;;;5024320;28;20267;-69
2022/11/07 14:32:46;;;;;;;;;;;13.70;99.90;;;;;;5012180;28;19964;-69
2022/11/07 14:35:17;;;;;;;;;;;13.70;99.90;;;;;;5004472;28;19985;-69
2022/11/07 14:37:44;;;;;;;;;;;13.80;99.90;;;;;;5009649;28;19953;-69
2022/11/07 14:40:11;;;;;;;;;;;13.80;99.90;;;;;;5019472;28;19980;-68
2022/11/07 14:42:37;;;;;;;;;;;13.90;99.90;;;;;;5007364;28;19981;-69
2022/11/07 14:45:07;;;;;;;;;;;13.90;99.90;;;;;;5004324;28;20337;-69
2022/11/07 14:47:34;;;;;;;;;;;13.90;99.90;;;;;;5005212;28;19965;-69